This is the latest recevied weather packets stored in our database for station/object CYCD. If no packets are shown the sender has not sent any weather packets the latest 1 day(s).
| Time | Temp. | Humidity | Pressure | Rain* | Wind** | Luminosity | Snow |
|---|---|---|---|---|---|---|---|
| 1778103798 | 15° C | 77% | 1019.3 hPa | - | - | - | - |
| 1778103199 | 15° C | 77% | 1019.3 hPa | - | - | - | - |
| 1778100797 | 15° C | 77% | 1019.3 hPa | - | - | - | - |
| 1778099598 | 15° C | 77% | 1019.3 hPa | - | - | - | - |
| 1778099000 | 15° C | 77% | 1019.3 hPa | - | - | - | - |
| 1778097201 | 13.89° C | 82% | 1019 hPa | - | - | - | - |
| 1778093600 | 15.56° C | 72% | 1018.6 hPa | - | - | - | - |
| 1778087602 | 15.56° C | 77% | 1018.3 hPa | - | - | - | - |
| 1778080400 | 12.78° C | 87% | 1017.9 hPa | - | - | - | - |
| 1778078600 | 10° C | 99% | 1017.9 hPa | - | - | - | - |
| 1778076797 | 10° C | 93% | 1017.6 hPa | - | - | - | - |
| 1778075598 | 7.78° C | 100% | 1016.9 hPa | - | - | - | - |
| 1778073796 | 7.78° C | 100% | 1016.9 hPa | - | - | - | - |
| 1778072600 | 15° C | 77% | 1013.5 hPa | - | - | - | - |
| 1778069598 | 15° C | 77% | 1013.5 hPa | - | - | - | - |
| 1778067196 | 15° C | 77% | 1013.5 hPa | - | - | - | - |
| 1778066000 | 15° C | 77% | 1013.5 hPa | - | - | - | - |
| 1778065397 | 15° C | 77% | 1013.5 hPa | - | - | - | - |
| 1778064200 | 15° C | 77% | 1013.5 hPa | - | - | - | - |
| 1778063000 | 15° C | 77% | 1013.5 hPa | - | - | - | - |
| 1778062398 | 15° C | 77% | 1013.5 hPa | - | - | - | - |
| 1778059398 | 15° C | 77% | 1013.5 hPa | - | - | - | - |
| 1778058798 | 15° C | 77% | 1013.5 hPa | - | - | - | - |
| 1778058201 | 15° C | 77% | 1013.5 hPa | - | - | - | - |
| 1778057600 | 15° C | 77% | 1013.5 hPa | - | - | - | - |
* Rain since midnight (hover to see other rain measurements)
** Current wind speed in m/s (hover to see current wind gust speed)